Flight Track Log - Related Links

Times and Time Zones

All times are in EDT time to prevent confusion due to time zone crossing. See the EJM949 flight status page for this flight to view local times or setup timezone preferences in your user account.

Time Position Orientation Groundspeed Altitude Reporting Facility
EDT Latitude Longitude Course Direction KTS MPH feet Rate Location/Type
Fri 09:27:19 PM 37.6188 -122.3690 299° West 147 169 200  Level FlightAware ADS-B
Fri 09:27:33 PM 37.6239 -122.3800 308° West 155 178 1,400 4,737 Climbing FlightAware ADS-B
Fri 09:27:38 PM 37.6268 -122.3830 324° Northwest 164 189 1,700 3,750 Climbing FlightAware ADS-B
Fri 09:27:41 PM 37.6291 -122.3850 335° Northwest 172 198 1,900 4,000 Climbing FlightAware ADS-B
Fri 09:27:47 PM 37.6337 -122.3870 349° North 183 211 2,300 4,500 Climbing FlightAware ADS-B
Fri 09:27:53 PM 37.6393 -122.3870 North 195 224 2,800 4,500 Climbing FlightAware ADS-B
Fri 09:27:59 PM 37.6444 -122.3850 19° North 200 230 3,200 4,800 Climbing FlightAware ADS-B
Fri 09:28:03 PM 37.6478 -122.3830 26° Northeast 203 234 3,600 5,400 Climbing FlightAware ADS-B
Fri 09:28:09 PM 37.6525 -122.3790 42° Northeast 210 242 4,100 4,364 Climbing FlightAware ADS-B
Fri 09:28:14 PM 37.6550 -122.3750 52° Northeast 210 242 4,400 4,667 Climbing FlightAware ADS-B
Fri 09:28:36 PM 37.6673 -122.3500 58° Northeast 217 250 6,200 4,703 Climbing FlightAware ADS-B
Fri 09:28:51 PM 37.6758 -122.3330 58° Northeast 235 270 7,300 4,714 Climbing FlightAware ADS-B
Fri 09:29:04 PM 37.6832 -122.3180 58° Northeast 232 267 8,400 5,100 Climbing FlightAware ADS-B
Fri 09:29:11 PM 37.6873 -122.3120 48° Northeast 232 267 9,000 5,077 Climbing FlightAware ADS-B
Fri 09:29:17 PM 37.6920 -122.3060 40° Northeast 234 269 9,500 4,154 Climbing FlightAware ADS-B
Fri 09:29:24 PM 37.6985 -122.3000 36° Northeast 239 275 9,900 3,231 Climbing FlightAware ADS-B
Fri 09:29:30 PM 37.7045 -122.2960 27° Northeast 253 291 10,200 2,571 Climbing FlightAware ADS-B
Fri 09:29:38 PM 37.7137 -122.2920 17° North 270 311 10,500 2,211 Climbing FlightAware ADS-B
Fri 09:29:49 PM 37.7278 -122.2890 North 293 337 10,900 1,800 Climbing FlightAware ADS-B
Fri 09:30:08 PM 37.7476 -122.2886 North 335 386 11,400 1,902 Climbing FlightAware ADS-B (EPLL / LCJ)
Fri 09:30:30 PM 37.7923 -122.2880 North 293 337 12,200 4,619 Climbing FlightAware ADS-B
Fri 09:32:27 PM 37.9875 -122.3007 356° North 345 397 22,100 4,171 Climbing FlightAware ADS-B (EPLL / LCJ)
Fri 09:33:14 PM 38.0727 -122.3090 1000° North 362 417 23,600 1,784 Climbing FlightAware ADS-B
Fri 09:33:41 PM 38.1035 -122.3122 356° North 429 494 24,300 2,364 Climbing FlightAware ADS-B
Fri 09:34:20 PM 38.2011 -122.3220 356° North 447 514 26,200 2,700 Climbing FlightAware ADS-B
Fri 09:35:01 PM 38.2879 -122.3306 356° North 468 539 27,900 2,325 Climbing FlightAware ADS-B
Fri 09:35:40 PM 38.3535 -122.3371 356° North 485 558 29,300 2,325 Climbing FlightAware ADS-B
Fri 09:36:21 PM 38.4689 -122.3485 356° North 497 572 31,000 2,741 Climbing FlightAware ADS-B
Fri 09:37:01 PM 38.5589 -122.3575 356° North 496 571 33,000 3,150 Climbing FlightAware ADS-B
Fri 09:37:41 PM 38.6471 -122.3664 355° North 491 565 35,200 3,225 Climbing FlightAware ADS-B
Fri 09:38:21 PM 38.7349 -122.3752 356° North 481 554 37,300 2,100 Climbing FlightAware ADS-B
Fri 09:39:01 PM 38.8237 -122.3842 356° North 489 563 38,000 213 Climbing FlightAware ADS-B
Fri 09:41:38 PM 39.1799 -122.4204 356° North 481 554 38,000  Level FlightAware ADS-B
Fri 09:42:21 PM 39.2758 -122.4301 356° North 483 556 38,000  Level FlightAware ADS-B
Fri 09:43:01 PM 39.3643 -122.4392 355° North 483 556 38,000  Level FlightAware ADS-B
Fri 09:43:41 PM 39.4540 -122.4485 356° North 484 557 38,000  Level FlightAware ADS-B
Fri 09:45:55 PM 39.7510 -122.4790 355° North 479 551 38,000  Level FlightAware ADS-B
Fri 09:47:49 PM 40.0018 -122.5052 355° North 477 549 38,000 -337 Level FlightAware ADS-B
Fri 09:51:51 PM 40.5289 -122.5606 355° North 471 542 36,000 -774 Descending FlightAware ADS-B
Fri 09:52:36 PM 40.6260 -122.5709 355° North 464 534 34,300 -1,925 Descending FlightAware ADS-B
Fri 09:53:37 PM 40.7303 -122.5819 355° North 460 529 32,600 -2,115 Descending Seattle Center
Fri 09:54:38 PM 40.8828 -122.5983 355° North 458 527 30,000 -2,311 Descending Seattle Center
Fri 09:55:39 PM 41.0075 -122.6117 355° North 441 507 27,900 -2,066 Descending Seattle Center
Fri 09:56:40 PM 41.1275 -122.6247 355° North 432 497 25,800 -1,967 Descending Seattle Center
Fri 09:57:41 PM 41.2450 -122.6375 355° North 414 476 23,900 -2,066 Descending Seattle Center
Fri 09:58:42 PM 41.3594 -122.6522 354° North 409 471 21,600 -2,164 Descending Seattle Center
Fri 09:59:43 PM 41.4544 -122.7047 338° Northwest 405 466 19,500 -2,311 Descending Seattle Center
Fri 10:00:44 PM 41.5547 -122.7608 337° Northwest 392 451 16,900 -2,607 Descending Seattle Center
Fri 10:01:45 PM 41.6750 -122.8050 345° North 381 438 14,200 -2,311 Descending Seattle Center
Fri 10:02:46 PM 41.7664 -122.8114 357° North 333 383 12,200 -1,180 Descending Seattle Center
Fri 10:03:47 PM 41.8500 -122.7914 10° North 306 352 11,800 -492 Descending Seattle Center
Fri 10:04:48 PM 41.9183 -122.7756 10° North 254 292 11,200 -393 Descending Seattle Center
Fri 10:05:49 PM 41.9853 -122.7594 10° North 248 285 11,000 -492 Descending Seattle Center
Fri 10:06:50 PM 42.0478 -122.7425 11° North 216 249 10,200 -836 Descending Seattle Center
Fri 10:07:51 PM 42.0981 -122.7306 10° North 185 213 9,300 -836 Descending Seattle Center
Fri 10:08:52 PM 42.1361 -122.7447 345° North 140 161 8,500 -1,131 Descending Seattle Center
Fri 10:09:53 PM 42.1689 -122.7636 337° Northwest 132 152 7,000 -1,328 Descending Seattle Center
Fri 10:10:54 PM 42.2025 -122.7814 339° North 131 151 5,800 -1,033 Descending Seattle Center
Fri 10:11:55 PM 42.2403 -122.8025 338° Northwest 132 152 4,900 -934 Descending Seattle Center
Fri 10:12:56 PM 42.2797 -122.8219 340° North 144 166 3,900 -1,082 Descending Seattle Center
Fri 10:13:57 PM 42.3150 -122.8417 338° Northwest 142 163 2,700 -1,033 Descending Seattle Center
Fri 10:14:58 PM 42.3486 -122.8589 339° North 132 152 1,800 -738 Descending Seattle Center
Fri 10:15:59 PM 42.3789 -122.8736 340° North 119 137 1,200 -590 Descending Seattle Center
Fri 10:17:00 PM 42.3742 -122.8735 340° North  Level Estimated
Fri 10:24:00 PM 42.3742 -122.8735 340° North  Level Estimated
Fri 10:25:00 PM 42.3742 -122.8735 340° North  Level Estimated

Login

Don't have an account? Register now (free) for customized features, flight alerts, and more!